Pagina principale
METAR-TAF:

METAR-TAF

Aeroporti :

Base aerea di Aviano

Aviano, Italia

latitudine: 46-02N, longitudine: 012-36E, altezza: 128 m

Osservazione

Il bollettino è stato emesso 41 minuti fa, alle 11:55 UTC
Vento 6 kt da est/sud-est
Temperature 17°C
Umidità 45%
Pressione 1021 hPa
Visibilità 10 km o più
Nubi sparse ad un'altezza di 8000 ft

METAR: LIPA 261155Z 11006KT 9999 SCT080 17/05 Q1021 RMK SCT VIS MIN 9999 WIND THR05 /////KT WIND THR23 /////KT A3016 BLU

Ora: 14:36 (12:36 UTC)

Previsione

Il bollettino è stato emesso 1 ora e 36 minuti fa, alle 11:00 UTC
Previsione valida dal 26 alle 12 UTC al 26 alle 21 UTC
Vento 3 kt da nord/nord-est
Visibilità 10 km o più
nessuna nube inferiore a 1500 m e nessun cumulonembo
Temporaneamente
dal 26 alle 12 UTC al 26 alle 16 UTC
Visibilità 10 km o più
Nubi sparse ad un'altezza di 8000 ft

TAF: LIPA 261100Z 2612/2621 02003KT CAVOK TEMPO 2612/2616 9999 SCT080

Osservazioni e previsioni meteorologiche di più di 4000 aeroporti (messaggi METAR e TAF).

Le stazioni disponibili sono rappresentate dai dischi gialli e rossi sulla carta.

Puntare il mouse per vedere il nome della stazione.

Clicca sopra per visualizzare le osservazioni e previsioni meteorologiche.

Per cambiare la mappa : fare clic sui pulsanti verdi con una croce nera per ingrandire, il pulsante verde con un trattino per diminuire, o sulla freccia verde per le mappe adiacenti.


METAR-TAF: